createdAt,value
2023-02-12T00:01:10.501Z,8.00
2023-02-12T00:03:41.483Z,8.13
2023-02-12T00:06:10.915Z,9.17
2023-02-12T00:08:41.081Z,7.23
2023-02-12T00:11:12.302Z,7.23
2023-02-12T00:13:41.173Z,7.93
2023-02-12T00:16:13.054Z,7.53
2023-02-12T00:18:42.912Z,7.33
2023-02-12T00:21:11.542Z,7.57
2023-02-12T00:23:41.722Z,7.27
2023-02-12T00:26:11.600Z,7.90
2023-02-12T00:28:40.421Z,7.10
2023-02-12T00:31:10.119Z,8.50
2023-02-12T00:33:39.192Z,7.03
2023-02-12T00:36:11.980Z,6.87
2023-02-12T00:38:40.209Z,7.90
2023-02-12T00:41:08.644Z,7.80
2023-02-12T00:43:37.060Z,8.67
2023-02-12T00:46:07.159Z,8.20
2023-02-12T00:48:35.847Z,8.73
2023-02-12T00:51:04.268Z,6.73
2023-02-12T00:53:34.914Z,7.20
2023-02-12T00:56:03.852Z,7.40
2023-02-12T00:58:32.164Z,6.13
2023-02-12T01:01:00.503Z,6.77
2023-02-12T01:03:28.858Z,6.10
2023-02-12T01:05:57.841Z,8.07
2023-02-12T01:08:26.993Z,6.90
2023-02-12T01:11:02.999Z,7.63
2023-02-12T01:13:32.139Z,6.90
2023-02-12T01:16:06.776Z,5.87
2023-02-12T01:18:35.365Z,5.90
2023-02-12T01:21:03.828Z,7.03
2023-02-12T01:23:32.121Z,6.33
2023-02-12T01:26:02.116Z,6.43
2023-02-12T01:28:30.737Z,6.50
2023-02-12T01:30:59.363Z,6.33
2023-02-12T01:33:27.671Z,5.83
2023-02-12T01:35:56.192Z,6.27
2023-02-12T01:38:24.995Z,6.17
2023-02-12T01:40:53.275Z,5.97
2023-02-12T01:43:23.287Z,4.93
2023-02-12T01:45:57.007Z,5.47
2023-02-12T01:48:28.891Z,5.47
2023-02-12T01:50:58.371Z,5.93
2023-02-12T01:53:34.486Z,6.23
2023-02-12T01:56:04.230Z,5.47
2023-02-12T01:58:39.528Z,5.63
2023-02-12T02:01:12.591Z,6.57
2023-02-12T02:03:42.160Z,5.40
2023-02-12T02:06:13.644Z,7.27
2023-02-12T02:08:42.623Z,5.13
2023-02-12T02:11:25.055Z,6.33
2023-02-12T02:14:13.233Z,5.77
2023-02-12T02:16:47.884Z,6.07
2023-02-12T02:19:31.689Z,5.90
2023-02-12T02:22:22.219Z,5.80
2023-02-12T02:25:35.141Z,6.03
2023-02-12T02:28:22.051Z,6.17
2023-02-12T02:30:56.870Z,7.70
2023-02-12T02:33:37.571Z,7.27
2023-02-12T02:36:25.746Z,7.87
2023-02-12T02:38:59.350Z,6.07
2023-02-12T02:41:33.122Z,6.73
2023-02-12T02:44:06.793Z,7.00
2023-02-12T02:46:41.946Z,7.00
2023-02-12T02:49:15.954Z,8.50
2023-02-12T02:51:50.065Z,6.93
2023-02-12T02:54:24.305Z,7.47
2023-02-12T02:56:59.350Z,7.30
2023-02-12T02:59:34.270Z,7.30
2023-02-12T03:02:10.581Z,6.70
2023-02-12T03:04:43.670Z,7.17
2023-02-12T03:07:16.301Z,6.67
2023-02-12T03:09:49.396Z,7.53
2023-02-12T03:12:22.963Z,7.57
2023-02-12T03:14:58.726Z,7.57
2023-02-12T03:17:34.146Z,7.57
2023-02-12T03:20:07.238Z,7.20
2023-02-12T03:22:38.973Z,6.43
2023-02-12T03:25:14.879Z,6.90
2023-02-12T03:27:47.660Z,7.43
2023-02-12T03:30:16.482Z,7.43
2023-02-12T03:32:55.706Z,8.57
2023-02-12T03:35:32.361Z,7.77
2023-02-12T03:38:16.466Z,8.27
2023-02-12T03:40:52.663Z,9.20
2023-02-12T03:43:26.382Z,8.07
2023-02-12T03:46:00.190Z,8.47
2023-02-12T03:48:35.016Z,7.83
2023-02-12T03:51:10.778Z,7.23
2023-02-12T03:53:39.223Z,7.80
2023-02-12T03:56:13.062Z,6.87
2023-02-12T03:58:44.296Z,9.07
2023-02-12T04:01:13.980Z,8.27
2023-02-12T04:03:43.951Z,9.70
2023-02-12T04:06:23.845Z,7.70
2023-02-12T04:08:52.659Z,7.37
2023-02-12T04:11:31.095Z,7.13
2023-02-12T04:14:16.075Z,7.20
2023-02-12T04:16:52.351Z,7.90
2023-02-12T04:19:35.101Z,7.40
2023-02-12T04:22:16.047Z,7.63
2023-02-12T04:24:54.242Z,7.93
2023-02-12T04:27:27.875Z,7.57
2023-02-12T04:30:02.400Z,7.63
2023-02-12T04:32:39.100Z,8.70
2023-02-12T04:35:16.589Z,7.60
2023-02-12T04:37:50.002Z,7.50
2023-02-12T04:40:20.918Z,7.70
2023-02-12T04:42:50.989Z,8.37
2023-02-12T04:45:23.959Z,7.20
2023-02-12T04:47:52.762Z,8.10
2023-02-12T04:50:23.113Z,8.87
2023-02-12T04:52:51.430Z,8.20
2023-02-12T04:55:19.998Z,8.63
2023-02-12T04:57:48.951Z,8.03
2023-02-12T05:00:18.584Z,9.07
2023-02-12T05:02:46.637Z,8.13
2023-02-12T05:05:14.747Z,7.60
2023-02-12T05:07:44.225Z,8.43
2023-02-12T05:10:12.717Z,7.70
2023-02-12T05:12:40.673Z,8.57
2023-02-12T05:15:09.336Z,6.90
2023-02-12T05:17:37.460Z,7.33
2023-02-12T05:20:06.379Z,6.73
2023-02-12T05:22:34.379Z,6.53
2023-02-12T05:25:03.878Z,7.47
2023-02-12T05:27:31.964Z,6.27
2023-02-12T05:30:00.116Z,6.53
2023-02-12T05:32:28.143Z,7.23
2023-02-12T05:34:56.142Z,8.03
2023-02-12T05:37:24.459Z,7.63
2023-02-12T05:39:52.472Z,6.43
2023-02-12T05:42:21.907Z,6.97
2023-02-12T05:44:49.950Z,7.40
2023-02-12T05:47:18.089Z,8.23
2023-02-12T05:49:46.092Z,6.67
2023-02-12T05:52:14.135Z,7.13
2023-02-12T05:54:42.236Z,7.47
2023-02-12T05:57:10.239Z,6.77
2023-02-12T05:59:40.403Z,7.03
2023-02-12T06:02:08.449Z,6.53
2023-02-12T06:04:36.534Z,7.27
2023-02-12T06:07:04.668Z,8.00
2023-02-12T06:09:32.718Z,8.03
2023-02-12T06:12:00.780Z,6.60
2023-02-12T06:14:31.549Z,6.70
2023-02-12T06:17:01.515Z,6.70
2023-02-12T06:19:29.546Z,6.97
2023-02-12T06:21:57.654Z,7.40
2023-02-12T06:24:25.920Z,8.20
2023-02-12T06:26:54.153Z,7.97
2023-02-12T06:29:23.108Z,8.70
2023-02-12T06:31:51.370Z,7.20
2023-02-12T06:34:20.822Z,7.33
2023-02-12T06:36:49.569Z,6.93
2023-02-12T06:39:18.297Z,7.00
2023-02-12T06:41:46.317Z,7.00
2023-02-12T06:44:14.665Z,6.47
2023-02-12T06:46:42.839Z,6.77
2023-02-12T06:49:14.206Z,7.77
2023-02-12T06:51:43.985Z,7.53
2023-02-12T06:54:15.427Z,7.10
2023-02-12T06:56:43.536Z,7.10
2023-02-12T06:59:14.630Z,6.70
2023-02-12T07:01:42.902Z,6.00
2023-02-12T07:04:11.979Z,6.93
2023-02-12T07:06:40.178Z,7.30
2023-02-12T07:09:09.648Z,7.63
2023-02-12T07:11:38.849Z,6.23
2023-02-12T07:14:07.379Z,6.23
2023-02-12T07:16:35.521Z,7.37
2023-02-12T07:19:03.641Z,6.83
2023-02-12T07:21:32.000Z,6.67
2023-02-12T07:24:00.266Z,7.27
2023-02-12T07:26:29.958Z,6.20
2023-02-12T07:28:58.549Z,7.07
2023-02-12T07:31:26.807Z,7.93
2023-02-12T07:33:56.190Z,6.03
2023-02-12T07:36:25.668Z,5.67
2023-02-12T07:38:54.761Z,6.10
2023-02-12T07:41:24.747Z,7.00
2023-02-12T07:43:57.323Z,5.90
2023-02-12T07:46:29.745Z,6.60
2023-02-12T07:48:58.969Z,6.27
2023-02-12T07:51:28.087Z,5.70
2023-02-12T07:53:57.103Z,8.23
2023-02-12T07:56:29.611Z,6.27
2023-02-12T07:59:00.098Z,6.27
2023-02-12T08:01:30.307Z,6.20
2023-02-12T08:04:00.910Z,6.00
2023-02-12T08:06:31.411Z,5.40
2023-02-12T08:09:00.949Z,5.00
2023-02-12T08:11:31.718Z,6.60
2023-02-12T08:14:01.984Z,5.23
2023-02-12T08:16:31.659Z,6.97
2023-02-12T08:19:14.352Z,5.33
2023-02-12T08:21:44.983Z,4.90
2023-02-12T08:24:13.054Z,4.60
2023-02-12T08:26:41.261Z,5.80
2023-02-12T08:29:14.244Z,4.50
2023-02-12T08:31:44.669Z,4.60
2023-02-12T08:34:20.015Z,5.13
2023-02-12T08:36:49.784Z,5.67
2023-02-12T08:39:18.851Z,5.40
2023-02-12T08:41:47.436Z,5.53
2023-02-12T08:44:17.412Z,5.27
2023-02-12T08:46:47.850Z,5.37
2023-02-12T08:49:18.891Z,5.63
2023-02-12T08:51:49.658Z,5.83
2023-02-12T08:54:19.701Z,5.77
2023-02-12T08:56:47.987Z,4.67
2023-02-12T08:59:18.487Z,5.20
2023-02-12T09:01:46.791Z,5.60
2023-02-12T09:04:18.141Z,5.60
2023-02-12T09:06:47.352Z,6.17
2023-02-12T09:09:16.034Z,5.33
2023-02-12T09:11:44.772Z,5.43
2023-02-12T09:14:14.549Z,5.60
2023-02-12T09:16:44.133Z,5.50
2023-02-12T09:19:14.161Z,5.53
2023-02-12T09:21:42.786Z,4.83
2023-02-12T09:24:11.577Z,5.43
2023-02-12T09:26:41.126Z,4.60
2023-02-12T09:29:09.411Z,6.07
2023-02-12T09:31:37.789Z,5.40
2023-02-12T09:34:08.575Z,6.93
2023-02-12T09:36:37.270Z,4.67
2023-02-12T09:39:05.864Z,5.40
2023-02-12T09:41:53.014Z,5.33
2023-02-12T09:44:26.878Z,5.63
2023-02-12T09:46:59.889Z,5.40
2023-02-12T09:49:53.652Z,5.20
2023-02-12T09:52:25.495Z,5.33
2023-02-12T09:54:54.586Z,6.20
2023-02-12T09:57:29.625Z,5.80
2023-02-12T10:00:00.863Z,5.87
2023-02-12T10:02:29.372Z,5.83
2023-02-12T10:05:02.481Z,5.80
2023-02-12T10:07:52.260Z,6.70
2023-02-12T10:10:32.588Z,5.70
2023-02-12T10:13:06.412Z,5.87
2023-02-12T10:15:40.828Z,6.37
2023-02-12T10:18:22.941Z,6.03
2023-02-12T10:21:04.659Z,5.23
2023-02-12T10:23:59.243Z,6.23
2023-02-12T10:26:31.707Z,7.77
2023-02-12T10:29:06.078Z,7.20
2023-02-12T10:31:38.907Z,6.93
2023-02-12T10:34:17.809Z,6.53
2023-02-12T10:36:49.129Z,6.23
2023-02-12T10:39:22.892Z,6.50
2023-02-12T10:41:57.726Z,8.43
2023-02-12T10:44:25.824Z,7.73
2023-02-12T10:46:54.057Z,8.07
2023-02-12T10:49:23.241Z,9.10
2023-02-12T10:52:06.413Z,16.73
2023-02-12T10:54:43.018Z,13.30
2023-02-12T10:57:23.004Z,8.93
2023-02-12T10:59:53.153Z,9.47
2023-02-12T11:02:27.843Z,9.23
2023-02-12T11:04:58.045Z,8.67
2023-02-12T11:07:28.841Z,8.20
2023-02-12T11:09:58.238Z,9.00
2023-02-12T11:12:32.751Z,9.53
2023-02-12T11:15:02.950Z,8.80
2023-02-12T11:17:36.473Z,8.40
2023-02-12T11:20:10.382Z,8.70
2023-02-12T11:22:51.723Z,7.30
2023-02-12T11:25:20.318Z,8.00
2023-02-12T11:28:01.406Z,8.00
2023-02-12T11:30:30.388Z,7.50
2023-02-12T11:33:17.382Z,6.90
2023-02-12T11:35:54.941Z,7.40
2023-02-12T11:38:31.051Z,6.87
2023-02-12T11:41:03.156Z,7.50
2023-02-12T11:43:32.193Z,8.07
2023-02-12T11:46:01.983Z,7.00
2023-02-12T11:48:33.953Z,7.53
2023-02-12T11:51:04.044Z,8.60
2023-02-12T11:53:36.452Z,7.73
2023-02-12T11:56:06.795Z,6.03
2023-02-12T11:58:35.188Z,5.80
2023-02-12T12:01:09.676Z,6.30
2023-02-12T12:03:44.861Z,5.90
2023-02-12T12:06:22.891Z,7.23
2023-02-12T12:08:58.036Z,6.13
2023-02-12T12:11:31.029Z,6.13
2023-02-12T12:14:05.045Z,6.87
2023-02-12T12:16:56.529Z,7.03
2023-02-12T12:19:47.143Z,6.73
2023-02-12T12:22:22.201Z,6.90
2023-02-12T12:24:57.296Z,6.93
2023-02-12T12:27:54.853Z,6.23
2023-02-12T12:30:26.882Z,6.70
2023-02-12T12:32:58.855Z,6.53
2023-02-12T12:35:40.343Z,6.80
2023-02-12T12:38:20.105Z,6.77
2023-02-12T12:41:03.403Z,7.60
2023-02-12T12:43:43.109Z,7.03
2023-02-12T12:46:32.534Z,7.63
2023-02-12T12:49:17.748Z,7.60
2023-02-12T12:52:03.141Z,6.50
2023-02-12T12:54:43.800Z,6.70
2023-02-12T12:57:24.515Z,6.20
2023-02-12T13:00:09.814Z,5.97
2023-02-12T13:03:06.399Z,6.33
2023-02-12T13:05:58.579Z,5.77
2023-02-12T13:08:55.416Z,6.67
2023-02-12T13:11:36.399Z,5.83
2023-02-12T13:14:22.945Z,5.20
2023-02-12T13:16:58.254Z,4.70
2023-02-12T13:19:37.601Z,4.67
2023-02-12T13:22:12.062Z,5.20
2023-02-12T13:24:44.818Z,4.03
2023-02-12T13:27:16.805Z,4.80
2023-02-12T13:29:50.476Z,4.07
2023-02-12T13:32:25.662Z,4.13
2023-02-12T13:34:56.114Z,4.10
2023-02-12T13:37:35.232Z,4.97
2023-02-12T13:40:06.299Z,4.13
2023-02-12T13:42:44.935Z,4.27
2023-02-12T13:45:31.176Z,4.00
2023-02-12T13:48:35.199Z,3.80
2023-02-12T13:51:11.928Z,3.90
2023-02-12T13:53:53.089Z,3.53
2023-02-12T13:56:35.808Z,3.53
2023-02-12T13:59:04.012Z,3.90
2023-02-12T14:01:47.478Z,4.40
2023-02-12T14:04:23.655Z,4.10
2023-02-12T14:06:57.859Z,4.03
2023-02-12T14:09:33.964Z,3.60
2023-02-12T14:12:03.215Z,3.63
2023-02-12T14:14:35.309Z,4.07
2023-02-12T14:17:57.326Z,4.60
2023-02-12T14:20:32.284Z,4.00
2023-02-12T14:23:17.585Z,3.80
2023-02-12T14:25:49.229Z,3.43
2023-02-12T14:28:29.170Z,3.67
2023-02-12T14:31:33.019Z,3.83
2023-02-12T14:34:39.714Z,4.20
2023-02-12T14:37:32.718Z,4.30
2023-02-12T14:40:34.107Z,3.73
2023-02-12T14:43:05.133Z,4.30
2023-02-12T14:45:36.287Z,4.37
2023-02-12T14:48:05.837Z,4.33
2023-02-12T14:50:42.098Z,4.20
2023-02-12T14:53:26.475Z,4.40
2023-02-12T14:55:55.036Z,4.27
2023-02-12T14:58:26.446Z,7.40
2023-02-12T15:00:57.543Z,4.47
2023-02-12T15:03:31.465Z,4.53
2023-02-12T15:06:08.167Z,4.77
2023-02-12T15:08:45.107Z,4.47
2023-02-12T15:11:24.651Z,4.90
2023-02-12T15:13:58.489Z,4.50
2023-02-12T15:16:34.502Z,5.07
2023-02-12T15:19:08.973Z,4.87
2023-02-12T15:21:38.586Z,4.23
2023-02-12T15:24:10.354Z,4.77
2023-02-12T15:26:42.660Z,4.30
2023-02-12T15:29:21.708Z,4.80
2023-02-12T15:31:53.972Z,4.73
2023-02-12T15:34:25.803Z,3.50
2023-02-12T15:36:55.974Z,4.40
2023-02-12T15:39:26.014Z,4.03
2023-02-12T15:41:54.088Z,4.17
2023-02-12T15:44:28.202Z,4.20
2023-02-12T15:47:01.848Z,4.03
2023-02-12T15:49:36.306Z,4.10
2023-02-12T15:52:09.446Z,4.17
2023-02-12T15:54:40.326Z,4.03
2023-02-12T15:57:13.086Z,3.90
2023-02-12T15:59:42.838Z,4.20
2023-02-12T16:02:22.042Z,3.70
2023-02-12T16:04:50.733Z,3.90
2023-02-12T16:07:20.661Z,3.73
2023-02-12T16:09:53.752Z,3.60
2023-02-12T16:12:25.537Z,3.20
2023-02-12T16:14:55.559Z,3.60
2023-02-12T16:17:29.343Z,3.53
2023-02-12T16:19:59.438Z,3.30
2023-02-12T16:22:37.307Z,3.60
2023-02-12T16:25:16.687Z,3.97
2023-02-12T16:27:55.863Z,3.17
2023-02-12T16:30:30.049Z,3.13
2023-02-12T16:32:59.082Z,3.20
2023-02-12T16:35:33.777Z,2.93
2023-02-12T16:38:24.837Z,3.63
2023-02-12T16:41:27.058Z,3.30
2023-02-12T16:44:22.351Z,2.90
2023-02-12T16:46:54.036Z,2.70
2023-02-12T16:49:24.402Z,2.90
2023-02-12T16:51:54.116Z,2.70
2023-02-12T16:54:33.193Z,2.70
2023-02-12T16:57:03.394Z,2.20
2023-02-12T16:59:31.788Z,2.50
2023-02-12T17:02:02.102Z,2.73
2023-02-12T17:04:30.681Z,2.50
2023-02-12T17:06:59.511Z,3.10
2023-02-12T17:09:29.765Z,3.03
2023-02-12T17:11:58.767Z,3.00
2023-02-12T17:14:28.567Z,2.90
2023-02-12T17:16:57.163Z,3.10
2023-02-12T17:19:25.670Z,3.10
2023-02-12T17:21:54.683Z,3.90
2023-02-12T17:24:26.137Z,4.27
2023-02-12T17:26:55.700Z,4.20
2023-02-12T17:29:26.511Z,4.27
2023-02-12T17:31:56.491Z,4.50
2023-02-12T17:34:25.657Z,4.00
2023-02-12T17:36:54.651Z,4.23
2023-02-12T17:39:23.035Z,4.03
2023-02-12T17:41:51.826Z,4.67
2023-02-12T17:44:20.282Z,4.67
2023-02-12T17:46:48.744Z,4.17
2023-02-12T17:49:18.529Z,4.57
2023-02-12T17:51:46.980Z,4.90
2023-02-12T17:54:17.657Z,4.90
2023-02-12T17:56:46.329Z,4.00
2023-02-12T17:59:14.699Z,4.60
2023-02-12T18:01:43.082Z,5.07
2023-02-12T18:04:11.587Z,4.40
2023-02-12T18:06:41.464Z,5.47
2023-02-12T18:09:10.016Z,4.50
2023-02-12T18:11:40.373Z,5.00
2023-02-12T18:14:09.020Z,4.70
2023-02-12T18:16:37.480Z,4.90
2023-02-12T18:19:06.309Z,5.30
2023-02-12T18:21:35.164Z,4.57
2023-02-12T18:24:05.275Z,5.47
2023-02-12T18:26:33.636Z,4.63
2023-02-12T18:29:02.392Z,5.37
2023-02-12T18:31:30.961Z,5.13
2023-02-12T18:33:59.430Z,5.37
2023-02-12T18:36:28.039Z,5.97
2023-02-12T18:38:56.311Z,5.60
2023-02-12T18:41:28.435Z,5.83
2023-02-12T18:43:58.655Z,5.20
2023-02-12T18:46:29.611Z,5.27
2023-02-12T18:48:58.856Z,5.23
2023-02-12T18:51:30.998Z,5.77
2023-02-12T18:54:02.919Z,6.40
2023-02-12T18:56:34.593Z,5.60
2023-02-12T18:59:05.853Z,6.60
2023-02-12T19:01:35.823Z,6.33
2023-02-12T19:04:06.630Z,31.00
2023-02-12T19:06:39.473Z,69.83
2023-02-12T19:09:07.768Z,13.43
2023-02-12T19:11:38.498Z,8.40
2023-02-12T19:14:07.089Z,19.07
2023-02-12T19:16:35.850Z,22.00
2023-02-12T19:19:04.706Z,19.77
2023-02-12T19:21:33.081Z,15.13
2023-02-12T19:24:04.899Z,16.93
2023-02-12T19:26:34.703Z,14.20
2023-02-12T19:29:05.702Z,10.63
2023-02-12T19:31:36.712Z,9.30
2023-02-12T19:34:07.244Z,8.97
2023-02-12T19:36:37.323Z,7.80
2023-02-12T19:39:06.655Z,9.83
2023-02-12T19:41:40.700Z,9.77
2023-02-12T19:44:13.474Z,11.30
2023-02-12T19:46:42.257Z,12.60
2023-02-12T19:49:16.097Z,10.70
2023-02-12T19:51:44.925Z,9.40
2023-02-12T19:54:14.756Z,11.00
2023-02-12T19:56:43.642Z,10.40
2023-02-12T19:59:17.473Z,11.20
2023-02-12T20:01:46.070Z,11.57
2023-02-12T20:04:16.466Z,27.03
2023-02-12T20:06:45.918Z,17.53
2023-02-12T20:09:15.162Z,12.10
2023-02-12T20:11:43.700Z,9.60
2023-02-12T20:14:15.253Z,9.27
2023-02-12T20:16:44.757Z,8.53
2023-02-12T20:19:17.839Z,9.47
2023-02-12T20:21:48.991Z,9.80
2023-02-12T20:24:17.317Z,9.00
2023-02-12T20:26:45.666Z,9.77
2023-02-12T20:29:15.280Z,10.70
2023-02-12T20:31:44.929Z,9.37
2023-02-12T20:34:15.579Z,9.70
2023-02-12T20:36:45.831Z,9.00
2023-02-12T20:39:16.039Z,8.50
2023-02-12T20:41:44.754Z,9.23
2023-02-12T20:44:17.031Z,8.60
2023-02-12T20:46:46.397Z,8.70
2023-02-12T20:49:17.169Z,8.57
2023-02-12T20:51:46.280Z,8.87
2023-02-12T20:54:15.265Z,9.90
2023-02-12T20:56:43.950Z,17.47
2023-02-12T20:59:12.882Z,14.07
2023-02-12T21:01:43.691Z,13.50
2023-02-12T21:04:15.570Z,12.80
2023-02-12T21:06:45.162Z,10.67
2023-02-12T21:09:16.072Z,10.83
2023-02-12T21:11:46.313Z,11.77
2023-02-12T21:14:22.298Z,11.27
2023-02-12T21:16:53.845Z,13.37
2023-02-12T21:19:23.170Z,12.73
2023-02-12T21:21:51.619Z,13.37
2023-02-12T21:24:21.846Z,13.63
2023-02-12T21:26:51.353Z,14.33
2023-02-12T21:29:21.194Z,14.13
2023-02-12T21:31:51.329Z,15.37
2023-02-12T21:34:23.541Z,14.50
2023-02-12T21:36:54.169Z,15.37
2023-02-12T21:39:26.368Z,15.83
2023-02-12T21:41:56.554Z,16.20
2023-02-12T21:44:25.892Z,16.10
2023-02-12T21:46:54.313Z,17.03
2023-02-12T21:49:28.017Z,16.87
2023-02-12T21:51:57.713Z,18.10
2023-02-12T21:54:26.762Z,16.30
2023-02-12T21:56:54.912Z,17.87
2023-02-12T21:59:24.720Z,18.13
2023-02-12T22:01:55.284Z,17.93
2023-02-12T22:04:24.802Z,18.67
2023-02-12T22:06:54.020Z,19.13
2023-02-12T22:09:23.626Z,20.20
2023-02-12T22:11:52.970Z,18.67
2023-02-12T22:14:22.368Z,20.20
2023-02-12T22:16:50.616Z,18.27
2023-02-12T22:19:18.970Z,21.20
2023-02-12T22:21:52.304Z,18.20
2023-02-12T22:24:20.969Z,19.73
2023-02-12T22:26:49.029Z,19.50
2023-02-12T22:29:17.941Z,19.93
2023-02-12T22:31:47.765Z,18.77
2023-02-12T22:34:17.872Z,19.17
2023-02-12T22:36:46.741Z,19.03
2023-02-12T22:39:17.531Z,21.13
2023-02-12T22:41:46.068Z,19.20
2023-02-12T22:44:18.354Z,19.77
2023-02-12T22:46:47.564Z,20.13
2023-02-12T22:49:16.638Z,19.50
2023-02-12T22:51:44.728Z,18.60
2023-02-12T22:54:16.729Z,19.13
2023-02-12T22:56:45.588Z,18.57
2023-02-12T22:59:15.442Z,18.57
2023-02-12T23:01:43.972Z,18.47
2023-02-12T23:04:16.288Z,20.80
2023-02-12T23:06:44.700Z,18.97
2023-02-12T23:09:16.953Z,19.13
2023-02-12T23:11:46.075Z,19.37
2023-02-12T23:14:14.378Z,31.50
2023-02-12T23:16:42.724Z,18.63
2023-02-12T23:19:11.662Z,18.17
2023-02-12T23:21:40.039Z,18.73
2023-02-12T23:24:09.123Z,18.57
2023-02-12T23:26:38.859Z,19.60
2023-02-12T23:29:07.048Z,18.97
2023-02-12T23:31:35.383Z,17.73
2023-02-12T23:34:03.716Z,18.53
2023-02-12T23:36:32.010Z,17.60
2023-02-12T23:39:00.544Z,18.90
2023-02-12T23:41:28.811Z,18.17
2023-02-12T23:43:58.393Z,18.07
2023-02-12T23:46:26.579Z,17.43
2023-02-12T23:48:54.855Z,18.90
2023-02-12T23:51:23.046Z,17.90
2023-02-12T23:53:51.158Z,16.93
2023-02-12T23:56:19.360Z,17.07
2023-02-12T23:58:47.527Z,16.37
